Time;durP1;ratioP1;P1;durP2;ratioP2;P2;SDS_P1;SDS_P2;PMS_P1;PMS_P2;Temp;Humidity;BMP_temperature;BMP_pressure;BME280_temperature;BME280_humidity;BME280_pressure;Samples;Min_cycle;Max_cycle;Signal;HPM_P1;HPM_P2
2023/01/17 00:00:31;;;;;;;;;;;;;;;6.86;69.56;98379.00;5027429;28;20411;-82
2023/01/17 00:02:56;;;;;;;;;;;;;;;6.85;69.47;98383.53;5012732;28;20292;-82
2023/01/17 00:10:52;;;;;;;;;;;;;;;6.83;69.84;98396.44;5009462;28;19929;-82
2023/01/17 00:13:17;;;;;;;;;;;;;;;6.82;69.71;98405.56;5012939;28;19922;-79
2023/01/17 00:15:42;;;;;;;;;;;;;;;6.82;69.83;98397.50;5012059;28;19952;-83
2023/01/17 00:18:07;;;;;;;;;;;;;;;6.83;69.68;98407.19;5011347;28;19925;-82
2023/01/17 00:26:09;;;;;;;;;;;;;;;6.80;69.62;98421.13;5019364;28;19972;-83
2023/01/17 01:35:17;;;;;;;;;;;;;;;6.67;69.57;98478.06;5015224;28;20458;-84
2023/01/17 01:37:43;;;;;;;;;;;;;;;6.67;69.33;98476.16;5014044;28;19925;-83
2023/01/17 01:40:09;;;;;;;;;;;;;;;6.66;69.43;98479.13;5003271;28;19929;-82
2023/01/17 01:42:34;;;;;;;;;;;;;;;6.66;69.32;98492.56;5013954;28;20000;-83
2023/01/17 01:44:59;;;;;;;;;;;;;;;6.64;69.22;98498.19;5010707;28;19933;-84
2023/01/17 01:47:31;;;;;;;;;;;;;;;6.64;69.31;98505.44;5010113;28;19999;-80
2023/01/17 01:49:58;;;;;;;;;;;;;;;6.64;69.30;98502.75;5014912;28;19928;-83
2023/01/17 01:52:24;;;;;;;;;;;;;;;6.62;69.48;98503.00;5014156;28;19921;-82
2023/01/17 01:54:55;;;;;;;;;;;;;;;6.63;69.30;98510.00;5014263;28;19925;-83
2023/01/17 01:57:23;;;;;;;;;;;;;;;6.62;69.45;98523.66;5017607;28;20008;-83
2023/01/17 01:59:50;;;;;;;;;;;;;;;6.61;69.08;98532.81;5030805;28;20036;-84
2023/01/17 02:02:15;;;;;;;;;;;;;;;6.59;69.09;98540.31;5020031;28;19924;-83
2023/01/17 02:04:42;;;;;;;;;;;;;;;6.56;69.11;98538.97;5018148;28;20280;-83
2023/01/17 02:07:09;;;;;;;;;;;;;;;6.54;69.13;98546.47;5015005;28;19917;-81
2023/01/17 02:09:35;;;;;;;;;;;;;;;6.54;68.96;98559.88;5010093;28;19932;-82
2023/01/17 02:12:01;;;;;;;;;;;;;;;6.53;69.01;98573.56;5000499;28;20380;-83
2023/01/17 02:14:27;;;;;;;;;;;;;;;6.52;69.11;98558.56;5017105;28;19917;-83
2023/01/17 02:17:04;;;;;;;;;;;;;;;6.52;69.34;98551.31;5014728;28;20012;-83
2023/01/17 02:19:36;;;;;;;;;;;;;;;6.51;69.37;98549.72;5013025;28;19967;-83
2023/01/17 02:22:06;;;;;;;;;;;;;;;6.50;69.11;98548.09;5013996;28;20008;-81
2023/01/17 02:24:50;;;;;;;;;;;;;;;6.50;69.14;98542.72;5013394;28;19921;-82
2023/01/17 02:27:27;;;;;;;;;;;;;;;6.49;69.41;98541.13;5013544;28;19996;-83
2023/01/17 02:29:55;;;;;;;;;;;;;;;6.49;69.36;98538.44;5012920;28;20036;-81
2023/01/17 02:32:20;;;;;;;;;;;;;;;6.48;69.21;98534.16;5013763;28;19970;-81
2023/01/17 02:34:48;;;;;;;;;;;;;;;6.48;69.15;98534.97;5011342;28;20328;-81
2023/01/17 02:37:14;;;;;;;;;;;;;;;6.47;69.11;98533.34;5013289;28;19921;-83
2023/01/17 02:39:58;;;;;;;;;;;;;;;6.47;69.09;98536.00;5011409;28;20369;-81
2023/01/17 02:42:26;;;;;;;;;;;;;;;6.46;69.06;98531.75;5012313;28;19935;-83
2023/01/17 02:44:52;;;;;;;;;;;;;;;6.46;69.14;98528.25;5012688;28;20009;-83
2023/01/17 02:47:20;;;;;;;;;;;;;;;6.45;69.11;98532.81;5014447;28;20020;-83
2023/01/17 02:49:46;;;;;;;;;;;;;;;6.45;69.27;98537.34;5013892;28;19971;-83
2023/01/17 02:52:11;;;;;;;;;;;;;;;6.44;68.87;98541.94;5014110;28;20289;-83
2023/01/17 02:54:55;;;;;;;;;;;;;;;6.42;68.76;98533.34;5010300;28;19953;-82
2023/01/17 02:57:43;;;;;;;;;;;;;;;6.42;68.91;98545.94;5012969;28;19922;-82
2023/01/17 03:00:09;;;;;;;;;;;;;;;6.41;68.92;98545.16;5011626;28;20006;-83
2023/01/17 03:02:49;;;;;;;;;;;;;;;6.39;68.96;98539.25;5016132;28;19945;-80
2023/01/17 03:05:38;;;;;;;;;;;;;;;6.39;68.85;98543.81;5015199;28;19997;-82
2023/01/17 03:08:04;;;;;;;;;;;;;;;6.38;68.86;98561.78;5013561;28;19918;-82
2023/01/17 03:10:32;;;;;;;;;;;;;;;6.37;68.78;98554.78;5020689;28;19926;-84
2023/01/17 03:12:58;;;;;;;;;;;;;;;6.37;68.86;98556.69;5020504;28;19928;-82
2023/01/17 03:15:24;;;;;;;;;;;;;;;6.36;68.87;98563.94;5015359;28;20335;-84
2023/01/17 03:17:51;;;;;;;;;;;;;;;6.35;68.56;98559.66;5015057;28;19929;-83
2023/01/17 03:20:17;;;;;;;;;;;;;;;6.34;68.79;98560.69;5012973;28;19922;-84
2023/01/17 03:22:42;;;;;;;;;;;;;;;6.33;68.73;98555.63;5014236;28;19917;-84
2023/01/17 03:25:07;;;;;;;;;;;;;;;6.32;68.91;98554.78;5016103;28;19929;-84
2023/01/17 03:27:33;;;;;;;;;;;;;;;6.31;68.41;98555.09;5021889;28;20001;-82
2023/01/17 03:29:58;;;;;;;;;;;;;;;6.31;68.60;98560.44;5017896;28;20365;-83
2023/01/17 03:32:23;;;;;;;;;;;;;;;6.29;68.85;98558.03;5015078;28;19979;-82
2023/01/17 03:34:48;;;;;;;;;;;;;;;6.27;68.56;98558.31;5010491;28;20015;-83
2023/01/17 03:37:14;;;;;;;;;;;;;;;6.28;68.48;98572.50;5012623;28;19926;-82
2023/01/17 03:39:39;;;;;;;;;;;;;;;6.26;68.50;98575.44;5011184;28;20046;-83
2023/01/17 03:42:04;;;;;;;;;;;;;;;6.26;68.41;98571.97;5011216;28;20348;-83
2023/01/17 03:44:30;;;;;;;;;;;;;;;6.24;68.49;98577.59;5009596;28;19980;-83
2023/01/17 03:46:55;;;;;;;;;;;;;;;6.24;68.60;98579.47;5011966;28;20365;-83
2023/01/17 03:49:20;;;;;;;;;;;;;;;6.23;68.73;98577.88;5011982;28;20019;-82
2023/01/17 03:51:46;;;;;;;;;;;;;;;6.22;68.30;98581.59;5011991;28;19918;-83
2023/01/17 03:54:11;;;;;;;;;;;;;;;6.21;68.48;98583.50;5012045;28;19925;-85
2023/01/17 03:56:36;;;;;;;;;;;;;;;6.20;68.37;98575.69;5009554;28;19960;-83
2023/01/17 03:59:01;;;;;;;;;;;;;;;6.19;68.67;98576.78;5011469;28;20361;-82
2023/01/17 04:01:27;;;;;;;;;;;;;;;6.18;68.42;98580.56;5010806;28;19928;-82
2023/01/17 04:03:52;;;;;;;;;;;;;;;6.17;68.46;98576.25;5012098;28;19921;-83
2023/01/17 04:06:18;;;;;;;;;;;;;;;6.16;68.39;98578.13;5012607;28;19922;-83
2023/01/17 04:08:43;;;;;;;;;;;;;;;6.16;68.42;98574.66;5010551;28;19921;-82
2023/01/17 04:11:08;;;;;;;;;;;;;;;6.13;68.35;98578.66;5012521;28;20028;-83
2023/01/17 04:13:33;;;;;;;;;;;;;;;6.13;68.38;98577.88;5011520;28;19945;-83
2023/01/17 04:15:59;;;;;;;;;;;;;;;6.11;68.23;98580.81;5011157;28;20586;-82
2023/01/17 04:18:24;;;;;;;;;;;;;;;6.10;68.31;98576.53;5012012;28;19925;-83
2023/01/17 04:20:49;;;;;;;;;;;;;;;6.10;68.38;98578.38;5011554;28;19937;-83
2023/01/17 04:23:15;;;;;;;;;;;;;;;6.07;68.42;98577.84;5011735;28;20310;-83
2023/01/17 04:25:40;;;;;;;;;;;;;;;6.06;68.19;98578.91;5012953;28;19956;-84
2023/01/17 04:28:05;;;;;;;;;;;;;;;6.06;68.02;98586.94;5008738;28;20385;-82
2023/01/17 04:30:31;;;;;;;;;;;;;;;6.04;68.44;98581.03;5010820;28;20385;-83
2023/01/17 04:32:57;;;;;;;;;;;;;;;6.03;68.04;98582.13;5011263;28;19975;-83
2023/01/17 04:35:23;;;;;;;;;;;;;;;6.01;68.40;98583.47;5012110;28;19936;-82
2023/01/17 04:37:48;;;;;;;;;;;;;;;6.00;68.33;98576.50;5011691;28;19925;-83
2023/01/17 04:40:13;;;;;;;;;;;;;;;6.00;68.38;98582.66;5012591;28;20912;-83
2023/01/17 04:42:39;;;;;;;;;;;;;;;5.99;68.31;98582.91;5013957;28;19971;-84
2023/01/17 04:45:05;;;;;;;;;;;;;;;5.97;68.31;98575.16;5011508;28;19917;-83
2023/01/17 04:47:31;;;;;;;;;;;;;;;5.95;68.25;98577.31;5013460;28;19965;-84
2023/01/17 04:49:56;;;;;;;;;;;;;;;5.94;68.09;98578.34;5011336;28;19971;-83
2023/01/17 04:52:22;;;;;;;;;;;;;;;5.94;68.00;98569.50;5011736;28;19925;-82
2023/01/17 04:54:50;;;;;;;;;;;;;;;5.93;68.12;98575.94;5010384;28;19925;-84
2023/01/17 04:57:16;;;;;;;;;;;;;;;5.92;68.02;98585.84;5012064;28;20304;-83
2023/01/17 04:59:42;;;;;;;;;;;;;;;5.91;67.88;98581.53;5012609;28;19918;-83
2023/01/17 05:02:07;;;;;;;;;;;;;;;5.91;68.05;98586.09;5011328;28;20484;-84
2023/01/17 05:04:32;;;;;;;;;;;;;;;5.90;68.02;98579.94;5010771;28;19922;-83
2023/01/17 05:06:58;;;;;;;;;;;;;;;5.89;68.06;98586.34;5011095;28;19925;-83
2023/01/17 05:09:23;;;;;;;;;;;;;;;5.89;68.07;98586.34;5014127;28;19921;-84
2023/01/17 05:11:49;;;;;;;;;;;;;;;5.88;68.18;98590.09;5015539;28;19933;-79
2023/01/17 05:14:14;;;;;;;;;;;;;;;5.89;68.06;98593.59;5014986;28;19989;-84
2023/01/17 05:16:39;;;;;;;;;;;;;;;5.87;68.20;98599.19;5015276;28;20012;-84
2023/01/17 05:19:04;;;;;;;;;;;;;;;5.85;68.25;98599.47;5014347;28;19925;-84
2023/01/17 05:21:31;;;;;;;;;;;;;;;5.84;67.81;98591.69;4997972;28;19921;-85
2023/01/17 05:23:57;;;;;;;;;;;;;;;5.84;67.90;98607.78;5013868;28;19917;-83
2023/01/17 05:26:22;;;;;;;;;;;;;;;5.83;68.11;98604.28;5014919;28;19921;-85
2023/01/17 05:28:48;;;;;;;;;;;;;;;5.82;68.05;98607.22;5015383;28;20324;-84
2023/01/17 05:31:13;;;;;;;;;;;;;;;5.82;67.80;98628.66;5015028;28;19922;-85
2023/01/17 05:33:39;;;;;;;;;;;;;;;5.82;68.08;98610.72;5013535;28;19921;-85
2023/01/17 05:36:04;;;;;;;;;;;;;;;5.80;67.97;98614.75;5012815;28;19929;-84
2023/01/17 05:38:29;;;;;;;;;;;;;;;5.79;68.05;98613.91;5015202;28;19922;-84
2023/01/17 05:40:57;;;;;;;;;;;;;;;5.78;68.00;98611.53;5014686;28;19932;-83
2023/01/17 05:43:22;;;;;;;;;;;;;;;5.78;67.87;98616.88;5014981;28;20456;-85
2023/01/17 05:45:48;;;;;;;;;;;;;;;5.76;68.10;98621.69;5014667;28;19925;-85
2023/01/17 05:48:14;;;;;;;;;;;;;;;5.75;67.86;98610.16;5014437;28;20300;-84
2023/01/17 05:50:39;;;;;;;;;;;;;;;5.73;68.18;98609.63;5014708;28;19921;-84
2023/01/17 05:53:09;;;;;;;;;;;;;;;5.73;67.97;98614.97;5015793;28;19922;-85
2023/01/17 05:55:34;;;;;;;;;;;;;;;5.71;67.80;98609.06;5014999;28;19918;-85
2023/01/17 05:58:00;;;;;;;;;;;;;;;5.72;68.03;98609.88;5013228;28;20439;-84
2023/01/17 06:00:25;;;;;;;;;;;;;;;5.70;68.03;98615.50;5013276;28;20047;-83
2023/01/17 06:02:54;;;;;;;;;;;;;;;5.69;68.02;98624.59;5014431;28;19917;-85
2023/01/17 06:05:20;;;;;;;;;;;;;;;5.68;67.95;98616.84;5014462;28;19918;-84
2023/01/17 06:07:45;;;;;;;;;;;;;;;5.68;68.04;98627.56;5015412;28;20431;-86
2023/01/17 06:10:13;;;;;;;;;;;;;;;5.67;68.07;98631.28;5012122;28;19929;-85
2023/01/17 06:12:38;;;;;;;;;;;;;;;5.66;68.17;98627.81;5014616;28;19918;-84
2023/01/17 06:15:03;;;;;;;;;;;;;;;5.66;68.09;98627.00;5013813;28;19963;-86
2023/01/17 06:17:29;;;;;;;;;;;;;;;5.64;67.83;98621.91;5013553;28;19925;-84
2023/01/17 06:19:54;;;;;;;;;;;;;;;5.62;67.77;98626.75;5011799;28;20387;-81
2023/01/17 06:22:19;;;;;;;;;;;;;;;5.62;67.95;98619.50;5014964;28;19922;-85
2023/01/17 06:24:44;;;;;;;;;;;;;;;5.62;67.88;98632.91;4995701;28;19922;-86
2023/01/17 06:27:10;;;;;;;;;;;;;;;5.61;67.97;98633.94;4998673;28;19925;-85
2023/01/17 06:29:37;;;;;;;;;;;;;;;5.60;67.94;98632.34;5013158;28;20434;-83
2023/01/17 06:32:02;;;;;;;;;;;;;;;5.60;67.89;98628.88;5013571;28;19930;-84
2023/01/17 06:34:28;;;;;;;;;;;;;;;5.59;67.92;98632.59;5014025;28;20061;-83
2023/01/17 06:36:53;;;;;;;;;;;;;;;5.58;67.76;98634.47;5014465;28;20388;-87
2023/01/17 06:39:18;;;;;;;;;;;;;;;5.56;67.61;98631.25;5015488;28;19921;-87
2023/01/17 06:41:43;;;;;;;;;;;;;;;5.56;67.87;98630.44;5016437;28;20016;-86
2023/01/17 06:44:09;;;;;;;;;;;;;;;5.55;67.79;98637.69;5019058;28;19925;-86
2023/01/17 06:46:34;;;;;;;;;;;;;;;5.54;67.53;98637.94;5015528;28;19917;-85
2023/01/17 06:48:59;;;;;;;;;;;;;;;5.52;67.63;98635.53;5013439;28;20373;-83
2023/01/17 06:51:25;;;;;;;;;;;;;;;5.52;68.07;98640.88;5011953;28;19925;-85
2023/01/17 06:53:50;;;;;;;;;;;;;;;5.52;67.63;98640.06;5011645;28;19929;-86
2023/01/17 06:56:15;;;;;;;;;;;;;;;5.50;67.70;98636.88;5012847;28;20435;-87
2023/01/17 06:58:40;;;;;;;;;;;;;;;5.49;67.69;98630.69;5013626;28;19922;-84
2023/01/17 07:01:06;;;;;;;;;;;;;;;5.49;67.76;98632.56;5012200;28;19925;-85
2023/01/17 07:03:32;;;;;;;;;;;;;;;5.48;67.66;98633.63;5013711;28;19987;-84
2023/01/17 07:05:59;;;;;;;;;;;;;;;5.47;67.75;98623.97;5011995;28;19976;-87
2023/01/17 07:08:25;;;;;;;;;;;;;;;5.46;67.78;98633.09;5027374;28;19953;-80
2023/01/17 07:10:50;;;;;;;;;;;;;;;5.43;67.39;98632.53;5014200;28;19921;-86
2023/01/17 07:13:15;;;;;;;;;;;;;;;5.43;67.46;98643.25;5025348;28;19925;-87
2023/01/17 07:15:41;;;;;;;;;;;;;;;5.41;67.42;98628.50;5008690;28;19929;-87
2023/01/17 07:18:06;;;;;;;;;;;;;;;5.41;67.44;98633.84;5013558;28;19923;-86
2023/01/17 07:20:32;;;;;;;;;;;;;;;5.40;67.75;98638.41;5013359;28;20008;-86
2023/01/17 07:22:57;;;;;;;;;;;;;;;5.39;67.83;98639.50;5011377;28;19917;-86
2023/01/17 07:25:23;;;;;;;;;;;;;;;5.38;67.49;98640.53;5013582;28;19944;-85
2023/01/17 07:27:51;;;;;;;;;;;;;;;5.37;67.32;98638.94;5016731;28;19921;-88
2023/01/17 07:30:16;;;;;;;;;;;;;;;5.36;67.67;98634.63;5019682;28;19918;-88
2023/01/17 07:32:42;;;;;;;;;;;;;;;5.36;67.49;98647.22;5025926;28;19932;-88
2023/01/17 07:35:07;;;;;;;;;;;;;;;5.34;67.48;98644.81;5022687;28;19925;-88
2023/01/17 07:37:32;;;;;;;;;;;;;;;5.33;67.31;98643.19;5026555;28;19918;-86
2023/01/17 07:39:59;;;;;;;;;;;;;;;5.32;67.61;98649.63;5028580;28;19960;-87
2023/01/17 07:42:25;;;;;;;;;;;;;;;5.32;67.71;98649.63;5027664;28;19925;-89
2023/01/17 07:44:50;;;;;;;;;;;;;;;5.31;67.41;98645.31;5026070;28;19921;-83
2023/01/17 07:47:15;;;;;;;;;;;;;;;5.31;67.41;98655.22;5016581;28;19936;-83
2023/01/17 07:49:40;;;;;;;;;;;;;;;5.29;66.98;98652.00;5013724;28;20015;-87
2023/01/17 07:52:06;;;;;;;;;;;;;;;5.24;67.35;98652.78;5016230;28;20242;-84
2023/01/17 07:54:31;;;;;;;;;;;;;;;5.23;67.04;98645.00;5017948;28;20000;-88
2023/01/17 07:56:57;;;;;;;;;;;;;;;5.21;67.16;98650.63;5015910;28;19921;-81
2023/01/17 07:59:22;;;;;;;;;;;;;;;5.18;67.12;98657.28;5012253;28;19917;-81
2023/01/17 08:01:47;;;;;;;;;;;;;;;5.17;67.26;98661.03;5012888;28;19924;-81
2023/01/17 08:04:13;;;;;;;;;;;;;;;5.16;67.58;98667.44;5012927;28;20377;-82
2023/01/17 08:06:41;;;;;;;;;;;;;;;5.16;67.62;98670.13;5011817;28;19921;-77
2023/01/17 08:09:06;;;;;;;;;;;;;;;5.14;67.56;98663.41;5014251;28;19913;-90
2023/01/17 08:11:31;;;;;;;;;;;;;;;5.14;67.50;98663.41;5015334;28;20265;-84
2023/01/17 08:13:58;;;;;;;;;;;;;;;5.13;67.73;98661.81;5014684;28;19918;-87
2023/01/17 08:16:23;;;;;;;;;;;;;;;5.13;67.69;98669.84;5013531;28;20015;-90
2023/01/17 08:18:49;;;;;;;;;;;;;;;5.12;67.33;98663.69;5013708;28;19968;-87
2023/01/17 08:21:15;;;;;;;;;;;;;;;5.12;67.41;98662.88;5013674;28;20003;-87
2023/01/17 08:23:40;;;;;;;;;;;;;;;5.12;67.52;98666.38;5013831;28;19967;-88
2023/01/17 08:26:06;;;;;;;;;;;;;;;5.11;67.61;98675.44;5013097;28;19925;-86
2023/01/17 08:28:31;;;;;;;;;;;;;;;5.10;67.73;98673.84;5016142;28;20365;-87
2023/01/17 08:30:56;;;;;;;;;;;;;;;5.10;67.57;98675.72;5030372;28;19928;-88
2023/01/17 08:33:21;;;;;;;;;;;;;;;5.09;67.56;98674.91;5015353;28;19921;-87
2023/01/17 08:35:53;;;;;;;;;;;;;;;5.09;67.50;98672.25;5010851;28;20312;-87
2023/01/17 08:38:19;;;;;;;;;;;;;;;5.08;67.67;98669.81;5013197;28;19914;-88
2023/01/17 08:40:44;;;;;;;;;;;;;;;5.09;67.50;98679.44;5013009;28;19917;-88
2023/01/17 08:43:10;;;;;;;;;;;;;;;5.08;67.75;98678.63;5015913;28;19925;-85
2023/01/17 08:45:35;;;;;;;;;;;;;;;5.07;67.39;98684.25;5023911;28;19969;-83
2023/01/17 08:48:00;;;;;;;;;;;;;;;5.06;67.54;98671.94;5028050;28;19972;-85
2023/01/17 08:50:26;;;;;;;;;;;;;;;5.05;67.63;98681.84;5021693;28;20348;-87
2023/01/17 08:52:56;;;;;;;;;;;;;;;5.05;67.59;98681.84;5023856;28;19940;-89
2023/01/17 08:55:21;;;;;;;;;;;;;;;5.04;67.41;98682.91;5028463;28;19913;-85
2023/01/17 08:57:46;;;;;;;;;;;;;;;5.03;67.64;98675.94;5026175;28;20258;-90
2023/01/17 09:00:12;;;;;;;;;;;;;;;5.04;67.71;98687.44;5020883;28;19925;-85
2023/01/17 09:02:37;;;;;;;;;;;;;;;5.03;67.60;98683.94;5034810;28;19922;-87
2023/01/17 09:05:02;;;;;;;;;;;;;;;5.03;67.61;98680.47;5018534;28;19956;-87
2023/01/17 09:07:28;;;;;;;;;;;;;;;5.01;67.64;98672.69;5016453;28;20254;-88
2023/01/17 09:09:53;;;;;;;;;;;;;;;5.01;67.35;98677.25;5017358;28;20281;-87
2023/01/17 09:12:21;;;;;;;;;;;;;;;5.03;67.71;98683.16;5015223;28;19956;-88
2023/01/17 09:14:46;;;;;;;;;;;;;;;5.00;67.43;98679.13;5016810;28;19988;-88
2023/01/17 09:17:11;;;;;;;;;;;;;;;4.98;67.49;98679.38;5027861;28;19929;-83
2023/01/17 09:19:40;;;;;;;;;;;;;;;4.99;67.69;98681.00;5011152;28;20009;-86
2023/01/17 09:22:06;;;;;;;;;;;;;;;4.99;67.65;98681.00;5015381;28;19929;-88
2023/01/17 09:24:32;;;;;;;;;;;;;;;4.98;67.60;98679.38;5016775;28;20361;-86
2023/01/17 09:26:57;;;;;;;;;;;;;;;4.99;67.42;98688.22;5016056;28;19920;-87
2023/01/17 09:29:22;;;;;;;;;;;;;;;4.98;67.71;98683.91;5018439;28;19921;-84
2023/01/17 09:31:48;;;;;;;;;;;;;;;4.98;67.88;98681.25;5018533;28;19991;-88
2023/01/17 09:34:13;;;;;;;;;;;;;;;4.97;67.71;98685.78;5014332;28;20008;-88
2023/01/17 09:36:39;;;;;;;;;;;;;;;4.97;67.57;98683.13;5017995;28;19959;-86
2023/01/17 09:39:04;;;;;;;;;;;;;;;4.97;67.58;98685.78;5017334;28;19934;-88
2023/01/17 09:41:41;;;;;;;;;;;;;;;4.97;67.52;98691.16;5016078;28;20401;-83
2023/01/17 09:44:07;;;;;;;;;;;;;;;4.97;67.59;98696.50;4998163;28;19914;-89
2023/01/17 09:46:38;;;;;;;;;;;;;;;4.96;67.87;98691.38;5015069;28;20324;-89
2023/01/17 09:49:08;;;;;;;;;;;;;;;4.96;67.74;98699.41;5018044;28;19917;-87
2023/01/17 09:51:33;;;;;;;;;;;;;;;4.96;67.62;98694.06;5016657;28;19948;-87
2023/01/17 09:53:59;;;;;;;;;;;;;;;4.96;67.63;98702.91;5016092;28;20000;-88
2023/01/17 09:56:40;;;;;;;;;;;;;;;4.96;67.95;98704.75;5015205;28;19945;-87
2023/01/17 09:59:12;;;;;;;;;;;;;;;4.96;67.79;98707.44;5018168;28;19914;-87
2023/01/17 10:01:41;;;;;;;;;;;;;;;4.95;68.02;98708.50;5017663;28;19918;-88
2023/01/17 10:04:41;;;;;;;;;;;;;;;4.95;67.93;98705.84;5020310;28;19957;-86
2023/01/17 10:07:20;;;;;;;;;;;;;;;4.95;67.88;98703.16;4923349;29;20442;-82
2023/01/17 10:09:58;;;;;;;;;;;;;;;4.94;67.76;98714.94;4997325;28;19960;-85
2023/01/17 10:12:25;;;;;;;;;;;;;;;4.94;68.07;98720.28;5026471;28;19924;-86
2023/01/17 10:15:02;;;;;;;;;;;;;;;4.94;67.93;98720.28;5027874;28;19940;-87
2023/01/17 10:17:37;;;;;;;;;;;;;;;4.93;67.93;98722.13;5028354;28;19913;-86
2023/01/17 10:20:15;;;;;;;;;;;;;;;4.94;67.83;98718.41;5029172;28;19949;-88
2023/01/17 10:22:49;;;;;;;;;;;;;;;4.94;68.09;98720.28;5025107;28;19921;-86
2023/01/17 10:25:47;;;;;;;;;;;;;;;4.94;67.81;98726.44;5017180;28;19924;-91
2023/01/17 10:28:19;;;;;;;;;;;;;;;4.95;67.91;98716.53;4994486;28;19914;-87
2023/01/17 10:30:57;;;;;;;;;;;;;;;4.94;67.96;98723.78;5025117;28;19924;-86
2023/01/17 10:33:31;;;;;;;;;;;;;;;4.94;68.01;98728.31;5022065;28;19917;-87
2023/01/17 10:35:57;;;;;;;;;;;;;;;4.95;67.82;98737.94;5019291;28;20357;-88
2023/01/17 10:38:25;;;;;;;;;;;;;;;4.95;68.21;98735.28;5029100;28;19914;-87
2023/01/17 10:40:54;;;;;;;;;;;;;;;4.95;67.75;98735.28;5027149;28;19913;-86
2023/01/17 10:43:25;;;;;;;;;;;;;;;4.95;68.02;98732.59;5025953;28;19921;-88
2023/01/17 10:45:52;;;;;;;;;;;;;;;4.93;67.78;98729.34;5024078;28;19929;-87
2023/01/17 10:48:36;;;;;;;;;;;;;;;4.94;68.18;98733.66;5027403;28;19937;-87
2023/01/17 10:51:09;;;;;;;;;;;;;;;4.93;67.96;98730.16;5025861;28;20455;-88
2023/01/17 10:53:57;;;;;;;;;;;;;;;4.94;67.93;98734.47;5023820;28;19917;-88
2023/01/17 10:56:25;;;;;;;;;;;;;;;4.95;67.86;98733.41;5023411;28;20438;-87
2023/01/17 10:58:56;;;;;;;;;;;;;;;4.96;67.86;98728.84;5029268;28;19913;-86
2023/01/17 11:01:25;;;;;;;;;;;;;;;4.93;67.89;98722.13;5021338;28;19959;-90
2023/01/17 11:03:50;;;;;;;;;;;;;;;4.95;68.25;98721.91;5016492;28;19932;-91
2023/01/17 11:06:17;;;;;;;;;;;;;;;4.95;67.97;98716.53;5014721;28;19917;-87
2023/01/17 11:08:50;;;;;;;;;;;;;;;4.95;68.20;98722.69;5031631;28;19924;-86
2023/01/17 11:11:16;;;;;;;;;;;;;;;4.95;68.04;98717.34;5033545;28;19967;-86
2023/01/17 11:13:44;;;;;;;;;;;;;;;4.96;68.00;98715.47;5026185;28;19917;-86
2023/01/17 11:16:15;;;;;;;;;;;;;;;4.95;68.29;98717.34;5018154;28;20329;-89
2023/01/17 11:18:41;;;;;;;;;;;;;;;4.96;68.06;98718.13;5016422;28;19922;-89
2023/01/17 11:21:10;;;;;;;;;;;;;;;4.96;68.28;98721.66;5015536;28;20361;-88
2023/01/17 11:23:37;;;;;;;;;;;;;;;4.97;68.25;98717.91;5016401;28;20060;-88
2023/01/17 11:26:06;;;;;;;;;;;;;;;4.97;68.25;98717.91;5024044;28;19923;-88
2023/01/17 11:28:35;;;;;;;;;;;;;;;4.96;68.25;98708.28;5024887;28;19920;-88
2023/01/17 11:31:07;;;;;;;;;;;;;;;4.97;68.04;98704.53;5017194;28;19940;-89
2023/01/17 11:33:33;;;;;;;;;;;;;;;4.97;68.27;98720.56;5017779;28;20008;-89
2023/01/17 11:35:58;;;;;;;;;;;;;;;4.98;68.20;98713.34;5017734;28;19959;-89
2023/01/17 11:38:24;;;;;;;;;;;;;;;4.99;68.25;98723.81;5018483;28;19945;-88
2023/01/17 11:40:49;;;;;;;;;;;;;;;4.99;68.26;98712.31;5016322;28;19922;-83
2023/01/17 11:43:17;;;;;;;;;;;;;;;5.01;68.34;98712.03;5026345;28;19976;-89
2023/01/17 11:45:42;;;;;;;;;;;;;;;5.00;68.16;98705.88;5026659;28;19948;-90
2023/01/17 11:48:07;;;;;;;;;;;;;;;5.00;68.25;98703.19;5025014;28;19975;-88
2023/01/17 11:50:53;;;;;;;;;;;;;;;5.01;68.36;98696.78;5024292;28;19920;-88
2023/01/17 11:53:23;;;;;;;;;;;;;;;5.02;68.35;98695.72;5025934;28;20368;-89
2023/01/17 11:56:07;;;;;;;;;;;;;;;5.02;68.53;98697.59;5027103;28;20277;-87
2023/01/17 11:58:42;;;;;;;;;;;;;;;5.01;68.15;98696.78;5025819;28;19917;-83
2023/01/17 12:01:14;;;;;;;;;;;;;;;5.02;68.48;98690.38;5027405;28;19922;-88
2023/01/17 12:03:43;;;;;;;;;;;;;;;5.02;68.51;98695.72;5024177;28;20104;-87
2023/01/17 12:06:22;;;;;;;;;;;;;;;5.03;68.16;98696.53;5026965;28;19917;-88
2023/01/17 12:09:01;;;;;;;;;;;;;;;5.03;68.33;98693.84;5025659;28;19918;-87
2023/01/17 12:13:59;;;;;;;;;;;;;;;5.04;68.29;98687.44;5022895;28;19924;-89
2023/01/17 12:14:38;;;;;;;;;;;;;;;5.04;68.38;98688.25;5024561;28;19921;-87
2023/01/17 12:17:03;;;;;;;;;;;;;;;5.04;68.32;98685.59;5021750;28;20234;-88
2023/01/17 12:19:47;;;;;;;;;;;;;;;5.04;68.47;98687.44;5021299;28;19948;-88
2023/01/17 12:22:32;;;;;;;;;;;;;;;5.05;68.35;98697.09;5020033;28;19913;-89
2023/01/17 12:25:13;;;;;;;;;;;;;;;5.06;68.55;98688.78;5018501;28;19924;-88
2023/01/17 12:27:54;;;;;;;;;;;;;;;5.06;68.26;98677.28;5017532;28;19913;-89
2023/01/17 12:30:19;;;;;;;;;;;;;;;5.06;68.37;98688.78;5015522;28;19917;-88
2023/01/17 12:33:03;;;;;;;;;;;;;;;5.07;68.21;98682.38;5015539;28;19935;-88
2023/01/17 12:35:44;;;;;;;;;;;;;;;5.06;68.54;98680.75;5015969;28;19913;-89
2023/01/17 12:38:11;;;;;;;;;;;;;;;5.06;68.44;98686.09;5015577;28;19996;-88
2023/01/17 12:40:48;;;;;;;;;;;;;;;5.08;68.35;98681.31;5011232;28;19918;-81
2023/01/17 12:43:13;;;;;;;;;;;;;;;5.07;68.26;98682.38;5014376;28;20013;-88
2023/01/17 12:45:42;;;;;;;;;;;;;;;5.09;68.31;98682.94;5015125;28;20471;-87
2023/01/17 12:48:11;;;;;;;;;;;;;;;5.09;68.45;98674.91;5015998;28;19913;-87
2023/01/17 12:50:42;;;;;;;;;;;;;;;5.09;68.69;98676.75;5026677;28;19917;-81
2023/01/17 12:53:14;;;;;;;;;;;;;;;5.09;68.30;98674.09;5026678;28;19984;-87
2023/01/17 12:55:52;;;;;;;;;;;;;;;5.10;68.42;98681.06;5020847;28;19937;-86
2023/01/17 12:58:19;;;;;;;;;;;;;;;5.10;68.46;98678.38;5020699;28;19973;-87
2023/01/17 13:00:49;;;;;;;;;;;;;;;5.09;68.53;98682.09;5020184;28;19945;-88
2023/01/17 13:03:38;;;;;;;;;;;;;;;5.10;68.66;98678.38;5022466;28;19913;-87
2023/01/17 13:06:05;;;;;;;;;;;;;;;5.09;68.57;98680.28;4992690;28;19933;-86
2023/01/17 13:08:30;;;;;;;;;;;;;;;5.10;68.51;98679.19;5020179;28;19917;-86
2023/01/17 13:10:59;;;;;;;;;;;;;;;5.10;68.47;98671.16;5017529;28;19945;-87
2023/01/17 13:13:26;;;;;;;;;;;;;;;5.10;68.34;98675.72;5016964;28;19917;-87
2023/01/17 13:16:23;;;;;;;;;;;;;;;5.10;68.54;98675.72;5017161;28;19921;-87
2023/01/17 13:18:50;;;;;;;;;;;;;;;5.10;68.32;98665.00;4978000;28;20269;-86
2023/01/17 13:21:28;;;;;;;;;;;;;;;5.10;68.73;98659.66;5015443;28;19921;-86
2023/01/17 13:24:04;;;;;;;;;;;;;;;5.10;68.40;98673.84;5018980;28;20000;-88
2023/01/17 13:26:40;;;;;;;;;;;;;;;5.11;68.49;98661.25;5019690;28;19918;-88
2023/01/17 13:29:24;;;;;;;;;;;;;;;5.11;68.29;98664.72;5021588;28;19924;-85
2023/01/17 13:32:15;;;;;;;;;;;;;;;5.11;68.29;98667.41;5008874;28;19988;-89
2023/01/17 13:34:55;;;;;;;;;;;;;;;5.11;68.67;98672.75;5023308;28;19921;-87
2023/01/17 13:37:30;;;;;;;;;;;;;;;5.12;68.36;98676.28;5024497;28;19925;-88
2023/01/17 13:40:04;;;;;;;;;;;;;;;5.11;68.66;98672.75;5018308;28;19926;-88
2023/01/17 13:42:41;;;;;;;;;;;;;;;5.11;68.73;98675.44;5018866;28;19917;-83
2023/01/17 13:45:08;;;;;;;;;;;;;;;5.11;68.45;98678.13;5018832;28;20341;-89
2023/01/17 13:47:37;;;;;;;;;;;;;;;5.11;68.40;98678.13;5020543;28;20012;-89
2023/01/17 13:50:05;;;;;;;;;;;;;;;5.12;68.68;98681.63;5019267;28;20353;-88
2023/01/17 13:52:31;;;;;;;;;;;;;;;5.11;68.41;98680.78;5020465;28;19918;-89
2023/01/17 13:54:59;;;;;;;;;;;;;;;5.10;68.55;98679.19;5017374;28;19929;-89
2023/01/17 13:57:25;;;;;;;;;;;;;;;5.11;68.41;98686.13;5020461;28;19924;-87
2023/01/17 13:59:53;;;;;;;;;;;;;;;5.11;68.51;98688.03;5020259;28;20393;-87
2023/01/17 14:02:31;;;;;;;;;;;;;;;5.12;68.42;98681.63;5024099;28;19935;-90
2023/01/17 14:05:16;;;;;;;;;;;;;;;5.12;68.56;98689.66;5023211;28;19988;-88
2023/01/17 14:07:44;;;;;;;;;;;;;;;5.12;68.51;98689.66;5017750;28;20407;-87
2023/01/17 14:10:28;;;;;;;;;;;;;;;5.11;68.60;98688.81;5017718;28;19951;-89
2023/01/17 14:12:54;;;;;;;;;;;;;;;5.13;68.40;98688.56;5021744;28;19914;-90
2023/01/17 14:15:25;;;;;;;;;;;;;;;5.13;68.48;98691.25;5022798;28;19932;-88
2023/01/17 14:17:54;;;;;;;;;;;;;;;5.14;68.35;98687.50;5020872;28;19921;-88
2023/01/17 14:20:26;;;;;;;;;;;;;;;5.13;68.64;98688.56;5024655;28;19923;-89
2023/01/17 14:22:52;;;;;;;;;;;;;;;5.13;68.39;98694.72;5018264;28;19917;-87